KBFIKTIW

Guest
Details From KBFI - Boeing Field King Co Intl
To KTIW - TACOMA NARROWS
Flight Number -
Tags generated
Created
Modified
Stats Distance 21 nm / 38 km
Max Altitude 2,000 ft / 610 m
Waypoints 3
Social Downloads 0
Likes 0
Share VATSIM

Download

Looking for another format? Having issues loading an existing format? Contact us
Advertisement - Login to hide

Notes

Basic altitude profile: - Ascent Rate: 2500ft/min - Ascent Speed: 250kts - Cruise Altitude: 4000ft - Cruise Speed: 420kts - Descent Rate: 1500ft/min - Descent Speed: 250kts Options: - Use NATs: yes - Use PACOTS: yes - Use low airways: yes - Use high airways: yes

Route

KBFI SEA KTIW

ID Type Via Altitude Latitude Longitude Leg Dist Tot Dist Heading (true) Name
O KBFI APT - 0 ft / 0 m 47.53110˚ -122.30251˚ - 0 nm - Boeing Field King Co Intl
SEA VOR - 2,000 ft / 610 m 47.43536˚ -122.30961˚ 5 nm 5 nm 183° / 183° SEATTLE VORTAC
O KTIW APT - 0 ft / 0 m 47.26793˚ -122.57811˚ 14 nm 20 nm 227° / 227° TACOMA NARROWS

Altitude Profile

Advertisement - Login to hide

KBFI

Details ICAO KBFI (BFI)
Name Boeing Field King Co Intl
Region United States
Timezone America/Los_Angeles (UTC-7.0)
Stats Elevation 20 ft / 6 m (AMSL)
Location 47.531101° -122.302515°
Runways 2
Magnetic Variation 15.640° E

METAR

KBFI 242153Z VRB05KT 10SM SCT026 20/11 A3006 RMK AO2 SLP179 T02000106

Decode

TAF

TAF KBFI 241738Z 2418/2518 20007KT P6SM BKN020 OVC030 FM242000 23006KT P6SM BKN030 FM242100 25006KT P6SM SCT035 FM250100 33006KT P6SM SCT040 FM251200 VRB03KT P6SM SCT018 BKN030

Decode

Departure Runways

ID Width Length Bearing (true) Bearing (mag) Surface Threshold Offset Overrun Length
13L 100 ft / 30 m 3,708 ft / 1,130 m 150.28° 134.64° Asphalt 240 ft / 73 m 0 ft / 0 m
13R 200 ft / 61 m 9,997 ft / 3,047 m 150.27° 134.63° Asphalt 0 ft / 0 m 896 ft / 273 m
31L 200 ft / 61 m 9,997 ft / 3,047 m 330.29° 314.65° Asphalt 879 ft / 268 m 151 ft / 46 m
31R 100 ft / 30 m 3,708 ft / 1,130 m 330.28° 314.64° Asphalt 364 ft / 111 m 0 ft / 0 m

KTIW

Details ICAO KTIW (TIW)
Name TACOMA NARROWS
Region United States
Timezone America/Los_Angeles (UTC-7.0)
Stats Elevation 292 ft / 89 m (AMSL)
Location 47.267930° -122.578113°
Runways 1
Magnetic Variation 15.627° E

METAR

KTIW 242153Z 28008KT 10SM SCT023 19/11 A3008 RMK AO2 SLP184 T01890106

Decode

TAF

Not found

Destination Runways

ID Width Length Bearing (true) Bearing (mag) Surface Threshold Offset Overrun Length
17 150 ft / 46 m 5,004 ft / 1,525 m 186.99° 171.36° Asphalt 0 ft / 0 m 0 ft / 0 m
35 150 ft / 46 m 5,004 ft / 1,525 m 6.99° 351.36° Asphalt 0 ft / 0 m 0 ft / 0 m

Approach Navaids

Runway Type Ident Frequency Range Bearing (true) Bearing (mag) Slope Elevation
17 Localiser ITIW 109.10 MHz 18 nm / 33 km 186.99° 171.36° - 292 ft / 89 m (AMSL)
17 Glidescope ITIW 109.10 MHz 10 nm / 19 km 186.99° 171.36° 3.00° 292 ft / 89 m (AMSL)

Popular Alternatives